Time;durP1;ratioP1;P1;durP2;ratioP2;P2;SDS_P1;SDS_P2;PMS_P1;PMS_P2;Temp;Humidity;BMP_temperature;BMP_pressure;BME280_temperature;BME280_humidity;BME280_pressure;Samples;Min_cycle;Max_cycle;Signal;HPM_P1;HPM_P2
2023/04/08 01:06:21;;;;;;;1.88;1.60;;;;;;;4.68;100.00;99978.06;6150683;23;20037;-93
2023/04/08 01:08:50;;;;;;;3.40;3.03;;;;;;;4.64;100.00;99976.53;6017150;23;20018;-92
2023/04/08 01:11:15;;;;;;;0.73;0.73;;;;;;;4.71;100.00;99987.47;6101216;23;20013;-91
2023/04/08 01:13:43;;;;;;;1.77;1.67;;;;;;;4.62;100.00;99989.84;6101002;23;20039;-90
2023/04/08 01:16:12;;;;;;;1.95;1.42;;;;;;;4.55;100.00;99968.69;6102497;23;20014;-91
2023/04/08 01:18:38;;;;;;;3.30;2.13;;;;;;;4.54;100.00;99966.34;6101130;23;20021;-91
2023/04/08 01:21:05;;;;;;;1.48;1.38;;;;;;;4.55;100.00;99962.41;6102213;23;20009;-90
2023/04/08 01:23:38;;;;;;;0.70;0.45;;;;;;;4.74;100.00;99985.88;6101216;23;20020;-90
2023/04/08 01:26:04;;;;;;;1.70;1.52;;;;;;;4.72;100.00;99985.50;6101954;23;20009;-90
2023/04/08 01:28:30;;;;;;;0.40;0.40;;;;;;;4.72;100.00;99982.78;6098666;23;20021;-91
2023/04/08 01:30:59;;;;;;;1.60;1.50;;;;;;;4.61;100.00;99967.09;6102095;23;20488;-91
2023/04/08 01:33:29;;;;;;;2.67;1.98;;;;;;;4.79;100.00;99988.22;6102031;23;20017;-90
2023/04/08 01:35:55;;;;;;;1.15;0.90;;;;;;;4.67;100.00;99965.50;6101422;23;20010;-91
2023/04/08 01:38:24;;;;;;;1.90;1.80;;;;;;;4.69;100.00;99965.88;6099902;23;20018;-90
2023/04/08 01:40:50;;;;;;;1.65;1.55;;;;;;;4.70;100.00;99970.19;6102136;23;20104;-90
2023/04/08 01:43:17;;;;;;;3.75;1.95;;;;;;;4.75;100.00;99976.47;6101428;23;20033;-92
2023/04/08 01:45:45;;;;;;;1.15;1.13;;;;;;;4.63;100.00;99959.25;6101920;23;20022;-91
2023/04/08 01:48:12;;;;;;;1.75;1.45;;;;;;;4.68;100.00;99958.84;6101287;23;20308;-90
2023/04/08 01:50:40;;;;;;;1.52;1.27;;;;;;;4.73;100.00;99973.34;6100838;23;20017;-90
2023/04/08 01:53:11;;;;;;;0.88;0.88;;;;;;;4.61;100.00;99952.59;6101597;23;20006;-91
2023/04/08 01:55:39;;;;;;;2.30;2.10;;;;;;;4.59;100.00;99944.75;6101969;23;20049;-90
2023/04/08 01:58:08;;;;;;;2.08;1.98;;;;;;;4.78;100.00;99981.94;6101153;23;20397;-90
2023/04/08 02:00:35;;;;;;;1.88;1.48;;;;;;;4.74;100.00;99975.69;6101392;23;20013;-91
2023/04/08 02:03:02;;;;;;;0.50;0.50;;;;;;;4.79;100.00;99982.72;6100445;23;20357;-90
2023/04/08 02:05:28;;;;;;;2.35;0.85;;;;;;;4.81;100.00;99980.38;6076415;23;20435;-90
2023/04/08 02:07:53;;;;;;;3.28;2.97;;;;;;;4.81;100.00;99983.13;6072184;23;20025;-92
2023/04/08 02:10:19;;;;;;;3.85;1.05;;;;;;;4.65;100.00;99959.63;6072750;23;20014;-89
2023/04/08 02:12:46;;;;;;;2.13;2.00;;;;;;;4.74;100.00;99986.66;6070321;23;20013;-90
2023/04/08 02:15:12;;;;;;;2.35;2.15;;;;;;;4.66;100.00;99963.94;6074046;23;20054;-91
2023/04/08 02:17:45;;;;;;;1.67;1.40;;;;;;;4.76;100.00;99984.31;6072437;23;20018;-91
2023/04/08 02:20:17;;;;;;;0.95;0.75;;;;;;;4.68;100.00;99969.84;6096340;23;20021;-90
2023/04/08 02:23:16;;;;;;;3.80;2.05;;;;;;;4.67;100.00;99979.25;6048547;23;20081;-90
2023/04/08 02:25:43;;;;;;;1.40;1.30;;;;;;;4.58;100.00;99956.91;6072347;23;20437;-90
2023/04/08 02:28:10;;;;;;;1.77;1.55;;;;;;;4.67;100.00;99973.75;6071920;23;20490;-89
2023/04/08 02:30:43;;;;;;;0.80;0.80;;;;;;;4.65;100.00;99967.09;6072828;23;20123;-92
2023/04/08 02:33:13;;;;;;;0.75;0.75;;;;;;;4.70;100.00;99981.19;6048061;23;20022;-90
2023/04/08 02:35:40;;;;;;;0.88;0.82;;;;;;;4.53;100.00;99960.06;6072325;23;20335;-91
2023/04/08 02:38:11;;;;;;;0.93;0.80;;;;;;;4.63;100.00;99972.97;6071358;23;20044;-89
2023/04/08 02:40:36;;;;;;;1.98;1.77;;;;;;;4.59;100.00;99969.47;6072868;23;20350;-91
2023/04/08 02:43:02;;;;;;;1.58;1.48;;;;;;;4.56;100.00;99959.28;6071319;23;20009;-91
2023/04/08 02:45:36;;;;;;;0.65;0.65;;;;;;;4.75;100.00;99985.50;6072820;23;20014;-90
2023/04/08 02:48:02;;;;;;;2.22;2.05;;;;;;;4.71;100.00;99990.22;6072101;23;20014;-91
2023/04/08 02:50:28;;;;;;;0.98;0.93;;;;;;;4.68;100.00;99975.31;6048132;23;20461;-91
2023/04/08 02:52:54;;;;;;;0.80;0.38;;;;;;;4.58;100.00;99967.91;6095692;23;20018;-91
2023/04/08 02:55:23;;;;;;;0.57;0.57;;;;;;;4.55;100.00;99967.91;6048681;23;20045;-90
2023/04/08 02:57:49;;;;;;;3.17;2.72;;;;;;;4.72;100.00;99991.00;6071641;23;20417;-91
2023/04/08 03:00:16;;;;;;;2.00;1.90;;;;;;;4.66;100.00;99974.94;6072418;23;20010;-90
2023/04/08 03:02:41;;;;;;;1.08;1.00;;;;;;;4.55;100.00;99952.22;6071718;23;20101;-90
2023/04/08 03:05:08;;;;;;;0.35;0.35;;;;;;;4.49;100.00;99953.78;6092323;23;20092;-90
2023/04/08 03:07:34;;;;;;;1.77;1.65;;;;;;;4.69;100.00;99979.63;6076862;23;20411;-90
2023/04/08 03:10:04;;;;;;;1.55;1.45;;;;;;;4.65;100.00;99984.34;6100696;23;20057;-90
2023/04/08 03:12:30;;;;;;;1.92;1.73;;;;;;;4.54;100.00;99967.13;6099870;23;20346;-91
2023/04/08 03:14:56;;;;;;;0.95;0.95;;;;;;;4.46;100.00;99959.31;6076933;23;20119;-91
2023/04/08 03:17:22;;;;;;;1.70;1.27;;;;;;;4.67;100.00;99986.72;6077086;23;20009;-90
2023/04/08 03:19:48;;;;;;;1.30;1.25;;;;;;;4.69;100.00;99985.13;6100191;23;20045;-90
2023/04/08 03:22:13;;;;;;;0.77;0.77;;;;;;;4.68;100.00;99988.28;6100383;23;20052;-91
2023/04/08 03:24:39;;;;;;;2.38;2.17;;;;;;;4.62;100.00;99973.38;6100781;23;20048;-90
2023/04/08 03:27:06;;;;;;;3.35;3.10;;;;;;;4.51;100.00;99956.16;6100122;23;20056;-90
2023/04/08 03:29:32;;;;;;;1.08;0.47;;;;;;;4.48;100.00;99955.00;6076764;23;20513;-90
2023/04/08 03:31:58;;;;;;;1.02;1.00;;;;;;;4.60;100.00;99971.03;6100612;23;20040;-90
2023/04/08 03:34:23;;;;;;;3.80;2.85;;;;;;;4.73;100.00;99989.84;6100053;23;20025;-90
2023/04/08 03:36:49;;;;;;;1.95;1.27;;;;;;;4.61;100.00;99988.31;6076057;23;20720;-89
2023/04/08 03:39:15;;;;;;;1.35;1.25;;;;;;;4.47;100.00;99964.41;6076321;23;20020;-90
2023/04/08 03:41:40;;;;;;;2.72;2.42;;;;;;;4.47;100.00;99971.88;6099689;23;20021;-90
2023/04/08 03:44:06;;;;;;;1.65;1.55;;;;;;;4.67;100.00;99998.47;6100144;23;20028;-89
2023/04/08 03:46:32;;;;;;;1.27;0.85;;;;;;;4.65;100.00;100000.81;6100933;23;20113;-91
2023/04/08 03:48:57;;;;;;;5.25;2.05;;;;;;;4.56;100.00;99985.97;6099287;23;20045;-90
2023/04/08 03:51:23;;;;;;;4.50;1.63;;;;;;;4.49;100.00;99986.75;6075947;23;20428;-90
2023/04/08 03:53:49;;;;;;;1.75;1.65;;;;;;;4.57;100.00;99991.03;6075913;23;20005;-90
2023/04/08 03:56:15;;;;;;;1.70;1.60;;;;;;;4.61;100.00;100000.06;6077103;23;20346;-88
2023/04/08 03:58:40;;;;;;;0.57;0.57;;;;;;;4.60;100.00;100006.75;6075649;23;20362;-90
2023/04/08 04:01:06;;;;;;;0.73;0.73;;;;;;;4.67;100.00;100014.19;6100709;23;20021;-90
2023/04/08 04:03:32;;;;;;;2.80;2.53;;;;;;;4.63;100.00;99997.72;6102265;23;20025;-90
2023/04/08 04:05:58;;;;;;;5.65;2.85;;;;;;;4.63;100.00;100008.69;6077499;23;20354;-89
2023/04/08 04:08:23;;;;;;;1.83;1.73;;;;;;;4.65;100.00;100017.31;6101242;23;20014;-91
2023/04/08 04:10:50;;;;;;;2.35;1.85;;;;;;;4.60;100.00;100020.50;6078386;23;20037;-90
2023/04/08 04:13:18;;;;;;;0.75;0.75;;;;;;;4.59;100.00;100018.91;6077886;23;20096;-91
2023/04/08 04:15:56;;;;;;;0.93;0.93;;;;;;;4.41;100.00;99987.19;6078473;23;20023;-91
2023/04/08 04:18:22;;;;;;;1.15;1.10;;;;;;;4.52;100.00;100007.97;6078946;23;20022;-90
2023/04/08 04:20:48;;;;;;;1.20;1.20;;;;;;;4.52;100.00;100009.91;6101562;23;20013;-91
2023/04/08 04:23:13;;;;;;;4.35;2.00;;;;;;;4.53;100.00;100011.50;6102068;23;20465;-91
2023/04/08 04:25:43;;;;;;;0.45;0.45;;;;;;;4.68;100.00;100038.53;6102674;23;20024;-92
2023/04/08 04:28:08;;;;;;;1.83;1.73;;;;;;;4.48;100.00;100012.69;6101458;23;20043;-91
2023/04/08 04:30:38;;;;;;;4.13;2.55;;;;;;;4.69;100.00;100037.31;6102431;23;20025;-93
2023/04/08 04:33:08;;;;;;;2.22;1.75;;;;;;;4.49;100.00;100005.97;6078189;23;20100;-91
2023/04/08 04:35:44;;;;;;;1.65;1.23;;;;;;;4.41;100.00;99996.19;6078082;23;20084;-92
2023/04/08 04:38:11;;;;;;;4.85;1.63;;;;;;;4.73;100.00;100039.28;6101626;23;20532;-90
2023/04/08 04:40:40;;;;;;;7.60;3.30;;;;;;;4.52;100.00;100024.44;6078685;23;20430;-89
2023/04/08 04:43:06;;;;;;;0.80;0.80;;;;;;;4.64;100.00;100046.00;6100896;23;20064;-90
2023/04/08 04:45:32;;;;;;;0.70;0.70;;;;;;;4.55;100.00;100029.13;6101707;23;20013;-89
2023/04/08 04:47:57;;;;;;;2.65;2.25;;;;;;;4.67;100.00;100042.44;6101040;23;20022;-90
2023/04/08 04:50:23;;;;;;;2.33;1.77;;;;;;;4.65;100.00;100039.28;6101071;23;20425;-90
2023/04/08 04:52:49;;;;;;;0.82;0.82;;;;;;;4.61;100.00;100038.53;6100958;23;20122;-90
2023/04/08 04:55:18;;;;;;;0.82;0.82;;;;;;;4.42;100.00;100025.22;6077900;23;20012;-90
2023/04/08 04:57:44;;;;;;;0.45;0.45;;;;;;;4.56;100.00;100036.19;6076207;23;20025;-89
2023/04/08 05:00:11;;;;;;;0.65;0.65;;;;;;;4.42;100.00;100024.44;6075987;23;20013;-89
2023/04/08 05:02:36;;;;;;;1.33;1.27;;;;;;;4.46;100.00;100042.50;6076021;23;20013;-90
2023/04/08 05:05:02;;;;;;;1.65;1.55;;;;;;;4.49;100.00;100047.19;6076263;23;20339;-90
2023/04/08 05:07:28;;;;;;;0.85;0.75;;;;;;;4.37;100.00;100017.38;6076204;23;20021;-90
2023/04/08 05:09:54;;;;;;;1.05;1.02;;;;;;;4.49;100.00;100049.94;6076213;23;20021;-88
2023/04/08 05:12:20;;;;;;;1.80;1.70;;;;;;;4.48;100.00;100048.38;6076024;23;20010;-89
2023/04/08 05:14:46;;;;;;;4.47;2.67;;;;;;;4.35;100.00;100025.25;6075497;23;20092;-90
2023/04/08 05:17:12;;;;;;;0.98;0.98;;;;;;;4.57;100.00;100056.97;6076473;23;20033;-90
2023/04/08 05:19:38;;;;;;;2.65;2.47;;;;;;;4.46;100.00;100025.22;6076174;23;20013;-91
2023/04/08 05:22:03;;;;;;;3.30;2.72;;;;;;;4.56;100.00;100038.94;6076292;23;20191;-90
2023/04/08 05:24:29;;;;;;;1.17;1.13;;;;;;;4.46;100.00;100017.75;6100122;23;20025;-90
2023/04/08 05:27:02;;;;;;;0.90;0.90;;;;;;;4.70;100.00;100060.09;6098381;23;20013;-90
2023/04/08 05:29:30;;;;;;;3.78;3.40;;;;;;;4.47;100.00;100022.09;6101385;23;20028;-91
2023/04/08 05:31:56;;;;;;;3.67;2.30;;;;;;;4.72;100.00;100055.00;6077512;23;20017;-92
2023/04/08 05:34:21;;;;;;;4.13;1.63;;;;;;;4.74;100.00;100049.09;6075794;23;20080;-90
2023/04/08 05:36:50;;;;;;;0.95;0.95;;;;;;;4.86;100.00;100073.38;6099510;23;20005;-90
2023/04/08 05:39:17;;;;;;;3.20;2.03;;;;;;;4.90;100.00;100076.91;6076445;23;20100;-91
2023/04/08 05:41:43;;;;;;;2.90;2.70;;;;;;;4.78;100.00;100047.91;6075658;23;20410;-91
2023/04/08 05:44:09;;;;;;;2.38;2.17;;;;;;;4.85;100.00;100060.84;6086356;23;20037;-91
2023/04/08 05:46:36;;;;;;;3.25;2.50;;;;;;;4.87;100.00;100073.00;6145148;23;20152;-91
2023/04/08 05:49:02;;;;;;;1.85;1.77;;;;;;;4.91;100.00;100078.47;6100825;23;20005;-90
2023/04/08 05:51:27;;;;;;;1.58;1.42;;;;;;;4.95;100.00;100065.50;6077364;23;20084;-91
2023/04/08 05:53:53;;;;;;;1.92;1.83;;;;;;;4.83;100.00;100054.94;6077009;23;20074;-91
2023/04/08 05:56:19;;;;;;;4.85;2.13;;;;;;;5.04;100.00;100083.16;6089636;23;20141;-91
2023/04/08 05:58:45;;;;;;;2.17;2.05;;;;;;;4.81;100.00;100051.84;6098369;23;20012;-90
2023/04/08 06:01:14;;;;;;;3.38;3.10;;;;;;;4.94;100.00;100077.69;6125557;23;20005;-90
2023/04/08 06:03:40;;;;;;;2.90;1.42;;;;;;;5.08;100.00;100089.44;6150815;23;20390;-91
2023/04/08 06:06:11;;;;;;;4.13;1.20;;;;;;;5.10;100.00;100091.75;6125465;23;20013;-92
2023/04/08 06:08:37;;;;;;;3.05;2.28;;;;;;;5.06;100.00;100080.00;6150670;23;20014;-90
2023/04/08 06:11:04;;;;;;;2.15;2.03;;;;;;;5.21;100.00;100092.53;6151278;23;20043;-89
2023/04/08 06:13:30;;;;;;;2.67;2.20;;;;;;;5.18;100.00;100094.09;6150007;23;20020;-89
2023/04/08 06:15:56;;;;;;;1.75;1.65;;;;;;;5.19;100.00;100094.88;6076462;23;20052;-89
2023/04/08 06:18:21;;;;;;;2.72;2.08;;;;;;;5.14;100.00;100095.28;6122658;23;20026;-89
2023/04/08 06:20:47;;;;;;;1.00;1.00;;;;;;;5.06;100.00;100077.25;6099120;23;20017;-88
2023/04/08 06:23:13;;;;;;;1.05;1.05;;;;;;;4.89;100.00;100076.16;6099080;23;20005;-89
2023/04/08 06:25:38;;;;;;;1.40;1.30;;;;;;;4.90;100.00;100076.91;6099381;23;20080;-89
2023/04/08 06:28:04;;;;;;;0.75;0.75;;;;;;;4.95;100.00;100066.28;6149842;23;20334;-89
2023/04/08 06:30:30;;;;;;;4.07;3.75;;;;;;;5.06;100.00;100069.00;6150923;23;20478;-89
2023/04/08 06:32:55;;;;;;;7.50;2.25;;;;;;;5.32;100.00;100109.75;6150007;23;20010;-88
2023/04/08 06:35:21;;;;;;;1.60;1.50;;;;;;;5.36;100.00;100099.53;6123860;23;20009;-89
2023/04/08 06:37:46;;;;;;;1.40;1.23;;;;;;;5.46;100.00;100117.94;6123821;23;20401;-89
2023/04/08 06:40:12;;;;;;;1.98;1.88;;;;;;;5.36;100.00;100110.53;6151381;23;20033;-88
2023/04/08 06:42:39;;;;;;;1.92;1.63;;;;;;;5.47;100.00;100111.25;6150087;23;20092;-88
2023/04/08 06:45:15;;;;;;;2.38;2.17;;;;;;;5.39;100.00;100109.72;6101546;23;20488;-88
2023/04/08 06:47:40;;;;;;;2.30;2.17;;;;;;;5.35;100.00;100113.66;6123393;23;20014;-89
2023/04/08 06:50:15;;;;;;;2.70;2.50;;;;;;;5.36;100.00;100116.03;6100892;23;20052;-87
2023/04/08 06:52:41;;;;;;;0.55;0.55;;;;;;;5.40;100.00;100103.03;6100501;23;20017;-89
2023/04/08 06:55:06;;;;;;;0.82;0.82;;;;;;;5.49;100.00;100124.63;6120418;23;20020;-88
2023/04/08 06:57:32;;;;;;;2.33;0.95;;;;;;;5.55;100.00;100125.75;6094216;23;20025;-90
2023/04/08 06:59:59;;;;;;;2.33;1.67;;;;;;;5.59;100.00;100130.06;6073805;23;20026;-88
2023/04/08 07:02:25;;;;;;;1.00;1.00;;;;;;;5.60;100.00;100134.38;6072987;23;20434;-88
2023/04/08 07:04:50;;;;;;;1.02;1.02;;;;;;;5.43;100.00;100116.00;6097129;23;20115;-88
2023/04/08 07:07:18;;;;;;;5.10;0.90;;;;;;;5.44;100.00;100114.03;6097867;23;20025;-89
2023/04/08 07:09:45;;;;;;;2.38;2.17;;;;;;;5.46;100.00;100123.44;6073854;23;20372;-89
2023/04/08 07:12:17;;;;;;;1.52;1.45;;;;;;;5.38;100.00;100113.66;6096770;23;20364;-89
2023/04/08 07:14:43;;;;;;;1.98;1.88;;;;;;;5.48;100.00;100137.59;6097701;23;20027;-89
2023/04/08 07:17:08;;;;;;;2.10;1.92;;;;;;;5.50;100.00;100132.44;6073420;23;20104;-89
2023/04/08 07:19:34;;;;;;;0.75;0.75;;;;;;;5.43;100.00;100121.50;6096820;23;20438;-87
2023/04/08 07:22:00;;;;;;;3.13;1.95;;;;;;;5.64;100.00;100131.59;6096975;23;20013;-88
2023/04/08 07:24:26;;;;;;;2.45;2.00;;;;;;;5.83;100.00;100138.56;6097452;23;20033;-88
2023/04/08 07:26:51;;;;;;;2.08;1.95;;;;;;;5.88;100.00;100118.91;6095517;23;20159;-88
2023/04/08 07:29:20;;;;;;;4.05;2.70;;;;;;;5.97;100.00;100122.00;6068381;23;20014;-89
2023/04/08 07:31:48;;;;;;;3.35;2.17;;;;;;;5.96;100.00;100110.22;6096905;23;20022;-90
2023/04/08 07:34:14;;;;;;;1.20;1.10;;;;;;;6.01;100.00;100120.00;6120302;23;20528;-90
2023/04/08 07:36:40;;;;;;;0.75;0.63;;;;;;;5.96;100.00;100114.94;6147588;23;20006;-91
2023/04/08 07:39:06;;;;;;;1.33;1.23;;;;;;;5.92;100.00;100105.91;6121982;23;20036;-91
2023/04/08 07:41:31;;;;;;;1.45;1.05;;;;;;;5.91;100.00;100131.88;6148318;23;20005;-90
2023/04/08 07:43:59;;;;;;;1.45;1.35;;;;;;;6.08;100.00;100150.25;6098629;23;20026;-89
2023/04/08 07:46:25;;;;;;;1.48;1.38;;;;;;;6.07;100.00;100112.88;6123889;23;20084;-89
2023/04/08 07:48:51;;;;;;;2.75;2.55;;;;;;;6.46;100.00;100162.97;6148779;23;20092;-90
2023/04/08 07:51:19;;;;;;;2.92;2.47;;;;;;;6.39;100.00;100138.19;6098865;23;20010;-90
2023/04/08 07:53:45;;;;;;;1.70;1.52;;;;;;;6.39;100.00;100168.50;6074858;23;20021;-89
2023/04/08 07:56:15;;;;;;;2.45;2.13;;;;;;;6.40;100.00;100167.31;6097758;23;20025;-88
2023/04/08 07:58:41;;;;;;;1.55;1.45;;;;;;;6.39;100.00;100157.50;6097193;23;20021;-89
2023/04/08 08:01:17;;;;;;;4.40;2.38;;;;;;;6.48;100.00;100157.81;6122943;23;20013;-88
2023/04/08 08:03:44;;;;;;;2.78;2.15;;;;;;;6.38;100.00;100147.69;6097725;23;20152;-89
2023/04/08 08:06:11;;;;;;;3.10;2.92;;;;;;;6.50;100.00;100149.16;6096502;23;20036;-90
2023/04/08 08:08:36;;;;;;;1.45;1.38;;;;;;;6.46;100.00;100179.50;6098259;23;20249;-89
2023/04/08 08:11:02;;;;;;;2.28;2.08;;;;;;;6.42;100.00;100164.19;6098413;23;20430;-91
2023/04/08 08:13:27;;;;;;;2.22;2.00;;;;;;;6.50;100.00;100171.97;6098962;23;20036;-89
2023/04/08 08:15:53;;;;;;;2.85;2.25;;;;;;;6.60;100.00;100180.53;6097693;23;20333;-89
2023/04/08 08:18:19;;;;;;;1.90;1.75;;;;;;;6.43;100.00;100174.00;6098824;23;20080;-89
2023/04/08 08:20:45;;;;;;;1.67;1.48;;;;;;;6.47;100.00;100185.78;6099259;23;20028;-89
2023/04/08 08:23:10;;;;;;;1.52;1.45;;;;;;;6.20;100.00;100177.31;6125673;23;20189;-89
2023/04/08 08:25:36;;;;;;;2.08;1.27;;;;;;;6.18;100.00;100143.13;6151519;23;20124;-88
2023/04/08 08:28:01;;;;;;;2.20;1.88;;;;;;;6.27;100.00;100171.00;6123864;23;20016;-89
2023/04/08 08:30:27;;;;;;;0.63;0.63;;;;;;;6.38;100.00;100186.25;6077348;23;20076;-88
2023/04/08 08:32:53;;;;;;;2.63;2.13;;;;;;;6.35;100.00;100186.28;6099630;23;20044;-89
2023/04/08 08:35:19;;;;;;;0.60;0.60;;;;;;;6.44;100.00;100195.63;6124640;23;20434;-89
2023/04/08 08:37:44;;;;;;;1.95;1.70;;;;;;;6.39;100.00;100195.31;6075303;23;20038;-89
2023/04/08 08:40:10;;;;;;;0.45;0.45;;;;;;;6.42;100.00;100191.72;6100383;23;20005;-89
2023/04/08 08:42:36;;;;;;;1.58;1.35;;;;;;;6.49;100.00;100197.97;6098967;23;20073;-90
2023/04/08 08:45:02;;;;;;;1.77;1.48;;;;;;;6.43;100.00;100191.31;6099567;23;20053;-89
2023/04/08 08:47:28;;;;;;;3.90;2.10;;;;;;;6.40;100.00;100183.06;6100217;23;20017;-93
2023/04/08 08:49:53;;;;;;;2.72;2.53;;;;;;;6.66;100.00;100195.47;6126505;23;20006;-93
2023/04/08 08:52:19;;;;;;;1.17;1.15;;;;;;;6.46;100.00;100193.28;6150774;23;20076;-92
2023/04/08 08:54:45;;;;;;;0.85;0.68;;;;;;;6.63;100.00;100223.84;6100666;23;20025;-94
2023/04/08 08:57:19;;;;;;;0.75;0.75;;;;;;;6.47;100.00;100202.34;6101477;23;20017;-92
2023/04/08 08:59:48;;;;;;;1.27;1.17;;;;;;;6.53;100.00;100220.78;6151600;23;20067;-91
2023/04/08 09:02:25;;;;;;;1.98;1.42;;;;;;;6.59;100.00;100215.63;6126195;23;20064;-92
2023/04/08 09:05:04;;;;;;;1.60;1.48;;;;;;;6.62;100.00;100205.75;6098311;23;20030;-93
2023/04/08 09:07:30;;;;;;;4.28;1.42;;;;;;;6.64;100.00;100208.88;6125248;23;20017;-92
2023/04/08 09:09:58;;;;;;;1.58;1.48;;;;;;;6.61;100.00;100220.72;6150593;23;20092;-91
2023/04/08 09:12:26;;;;;;;3.00;1.85;;;;;;;6.56;100.00;100224.69;6124248;23;20071;-91
2023/04/08 09:15:10;;;;;;;1.40;1.30;;;;;;;6.63;100.00;100230.16;6150704;23;20025;-91
2023/04/08 09:17:38;;;;;;;3.35;1.77;;;;;;;6.56;100.00;100217.19;6125269;23;20472;-91
2023/04/08 09:20:11;;;;;;;2.70;1.60;;;;;;;6.44;100.00;100189.34;6148884;23;20005;-92
2023/04/08 09:23:00;;;;;;;0.93;0.93;;;;;;;6.61;100.00;100220.72;6100515;23;20064;-91
2023/04/08 09:25:31;;;;;;;5.18;3.40;;;;;;;6.63;100.00;100234.88;6099950;23;20017;-93
2023/04/08 09:27:57;;;;;;;2.85;1.83;;;;;;;6.57;100.00;100224.28;6124700;23;20013;-92
2023/04/08 09:30:27;;;;;;;1.17;1.08;;;;;;;6.71;100.00;100236.41;6100438;23;20020;-92
2023/04/08 09:32:54;;;;;;;2.20;2.00;;;;;;;6.57;100.00;100216.03;6124688;23;20019;-91
2023/04/08 09:35:21;;;;;;;3.03;2.40;;;;;;;6.52;100.00;100226.69;6150001;23;20305;-92
2023/04/08 09:37:47;;;;;;;1.90;1.35;;;;;;;6.53;100.00;100220.78;6124074;23;20017;-92
2023/04/08 09:40:15;;;;;;;0.88;0.88;;;;;;;6.58;100.00;100238.84;6124893;23;20269;-93
2023/04/08 09:42:44;;;;;;;0.80;0.80;;;;;;;6.63;100.00;100230.16;6125261;23;20064;-92
2023/04/08 09:45:11;;;;;;;1.67;0.95;;;;;;;6.71;100.00;100231.66;6099887;23;20013;-91
2023/04/08 09:48:03;;;;;;;1.75;1.45;;;;;;;6.85;100.00;100245.31;6125216;23;20017;-92
2023/04/08 09:50:36;;;;;;;0.88;0.88;;;;;;;7.00;100.00;100235.72;6123897;23;20049;-93
2023/04/08 09:53:28;;;;;;;1.10;1.10;;;;;;;7.01;100.00;100236.53;6124716;23;20080;-93
2023/04/08 09:55:56;;;;;;;1.05;1.05;;;;;;;7.14;100.00;100254.13;6111992;23;20358;-91
2023/04/08 09:58:32;;;;;;;1.45;1.10;;;;;;;7.00;100.00;100248.72;6099563;23;20017;-92
2023/04/08 10:00:57;;;;;;;0.88;0.88;;;;;;;6.96;100.00;100236.94;6150685;23;20048;-92
2023/04/08 10:03:29;;;;;;;1.52;1.42;;;;;;;7.07;100.00;100248.69;6075855;23;20022;-92
2023/04/08 10:05:56;;;;;;;3.45;1.63;;;;;;;6.90;100.00;100236.63;6123993;23;20021;-93
2023/04/08 10:08:23;;;;;;;1.85;1.75;;;;;;;6.81;100.00;100238.28;6125250;23;20021;-93
2023/04/08 10:10:49;;;;;;;0.82;0.82;;;;;;;6.89;100.00;100245.28;6124326;23;20024;-92
2023/04/08 10:13:15;;;;;;;1.75;1.30;;;;;;;6.91;100.00;100248.44;6124602;23;20017;-90
2023/04/08 10:15:42;;;;;;;1.60;1.33;;;;;;;6.89;100.00;100248.03;6149555;23;20028;-91
2023/04/08 10:18:10;;;;;;;0.25;0.25;;;;;;;6.90;100.00;100252.38;6123684;23;20017;-89
2023/04/08 10:20:36;;;;;;;0.90;0.90;;;;;;;6.92;100.00;100253.53;6149778;23;20031;-90
2023/04/08 10:23:13;;;;;;;1.15;0.85;;;;;;;6.78;100.00;100247.38;6148555;23;20472;-89
2023/04/08 10:25:40;;;;;;;3.63;1.67;;;;;;;6.80;100.00;100245.75;6124237;23;20072;-89
2023/04/08 10:28:12;;;;;;;2.10;2.00;;;;;;;6.85;100.00;100258.31;6123962;23;20449;-89
2023/04/08 10:30:47;;;;;;;1.95;1.85;;;;;;;6.94;100.00;100261.41;6124514;23;20021;-89
2023/04/08 10:33:31;;;;;;;3.92;3.13;;;;;;;6.88;100.00;100263.03;6100023;23;20112;-88
2023/04/08 10:36:10;;;;;;;;;;;;;;;6.85;100.00;100256.34;6099380;23;20021;-89
2023/04/08 10:38:41;;;;;;;1.88;1.33;;;;;;;6.88;100.00;100257.50;6098971;23;20397;-90
2023/04/08 10:41:07;;;;;;;1.48;1.38;;;;;;;6.85;100.00;100252.81;6099748;23;20006;-89
2023/04/08 10:43:33;;;;;;;1.30;1.20;;;;;;;6.82;100.00;100250.88;6098458;23;20021;-88
2023/04/08 10:45:59;;;;;;;1.50;1.40;;;;;;;6.89;100.00;100270.09;6099071;23;20009;-88
2023/04/08 10:48:25;;;;;;;1.85;1.27;;;;;;;6.86;100.00;100262.66;6098818;23;20044;-89
2023/04/08 10:50:59;;;;;;;1.23;1.15;;;;;;;6.78;100.00;100272.16;6074403;23;20350;-88
2023/04/08 10:53:32;;;;;;;1.67;1.35;;;;;;;6.60;100.00;100268.75;6099084;23;20025;-90
2023/04/08 10:56:14;;;;;;;2.53;1.75;;;;;;;6.46;100.00;100259.41;6096721;23;20017;-89
2023/04/08 10:58:51;;;;;;;1.40;1.17;;;;;;;6.35;100.00;100272.44;6072694;23;20024;-90
2023/04/08 11:01:16;;;;;;;4.55;3.08;;;;;;;6.28;100.00;100272.50;6096091;23;20013;-89
2023/04/08 11:03:42;;;;;;;0.35;0.35;;;;;;;6.12;100.00;100265.88;6070643;23;20072;-90
2023/04/08 11:06:08;;;;;;;1.55;1.45;;;;;;;6.00;100.00;100269.88;6096306;23;20529;-90
2023/04/08 11:08:35;;;;;;;1.35;1.25;;;;;;;6.02;100.00;100273.03;6097290;23;20342;-90
2023/04/08 11:11:01;;;;;;;1.38;1.27;;;;;;;5.97;100.00;100276.19;6094192;23;20009;-89
2023/04/08 11:13:27;;;;;;;1.02;0.85;;;;;;;5.87;100.00;100266.00;6095703;23;20026;-89
2023/04/08 11:15:57;;;;;;;1.25;1.23;;;;;;;5.80;100.00;100277.00;6095768;23;20493;-89
2023/04/08 11:18:23;;;;;;;3.35;1.42;;;;;;;5.81;100.00;100273.09;6096304;23;20029;-89
2023/04/08 11:20:51;;;;;;;1.42;1.15;;;;;;;5.81;100.00;100268.38;6096419;23;20014;-89
2023/04/08 11:23:17;;;;;;;0.63;0.63;;;;;;;5.88;100.00;100278.59;6120184;23;20026;-89
2023/04/08 11:25:44;;;;;;;1.30;1.20;;;;;;;5.91;100.00;100272.28;6097014;23;20021;-90
2023/04/08 11:28:10;;;;;;;0.57;0.57;;;;;;;5.92;100.00;100257.34;6096286;23;20028;-89
2023/04/08 11:30:38;;;;;;;0.10;0.10;;;;;;;6.16;100.00;100278.47;6096723;23;20018;-90
2023/04/08 11:33:03;;;;;;;1.75;1.00;;;;;;;6.21;100.00;100277.25;6097778;23;20341;-90
2023/04/08 11:35:30;;;;;;;0.40;0.40;;;;;;;6.26;100.00;100272.13;6097313;23;20021;-92
2023/04/08 11:37:56;;;;;;;0.52;0.52;;;;;;;6.42;100.00;100275.19;6098488;23;20022;-91
2023/04/08 11:40:23;;;;;;;0.38;0.38;;;;;;;6.45;100.00;100279.88;6097737;23;20442;-89
2023/04/08 11:42:49;;;;;;;1.02;0.93;;;;;;;6.42;100.00;100286.19;6097550;23;20430;-90
2023/04/08 11:45:17;;;;;;;0.85;0.40;;;;;;;6.36;100.00;100282.28;6120092;23;20347;-90
2023/04/08 11:47:43;;;;;;;0.70;0.70;;;;;;;6.41;100.00;100284.63;6118842;23;20024;-91
2023/04/08 11:50:09;;;;;;;0.40;0.40;;;;;;;6.41;100.00;100261.78;6095436;23;20044;-90
2023/04/08 11:52:50;;;;;;;0.95;0.95;;;;;;;6.69;100.00;100271.84;6072340;23;20442;-89
2023/04/08 11:55:30;;;;;;;0.88;0.88;;;;;;;6.71;100.00;100270.25;6095532;23;20366;-89
2023/04/08 11:57:58;;;;;;;0.55;0.55;;;;;;;6.90;100.00;100260.66;6070864;23;20025;-91
2023/04/08 12:00:27;;;;;;;0.10;0.10;;;;;;;7.14;100.00;100256.91;6071923;23;20002;-89
2023/04/08 12:02:53;;;;;;;0.25;0.25;;;;;;;7.30;100.00;100268.16;6120055;23;20026;-92
2023/04/08 12:05:19;;;;;;;0.65;0.40;;;;;;;7.46;100.00;100264.84;6094878;23;20024;-91
2023/04/08 12:07:45;;;;;;;0.17;0.17;;;;;;;7.41;100.00;100243.22;6096337;23;20097;-91
2023/04/08 12:10:11;;;;;;;0.10;0.10;;;;;;;7.42;100.00;100237.28;6096517;23;20081;-91
2023/04/08 12:12:37;;;;;;;0.00;0.00;;;;;;;7.42;100.00;100253.84;6095512;23;20029;-90
2023/04/08 12:15:03;;;;;;;0.30;0.30;;;;;;;7.33;100.00;100255.53;6094548;23;20036;-90
2023/04/08 12:17:30;;;;;;;0.20;0.20;;;;;;;7.19;100.00;100261.19;6120270;23;20406;-90
2023/04/08 12:19:56;;;;;;;0.30;0.30;;;;;;;6.98;100.00;100273.97;6072049;23;20363;-92
2023/04/08 12:22:22;;;;;;;0.20;0.20;;;;;;;6.93;100.00;100265.34;6096559;23;20097;-90
2023/04/08 12:24:47;;;;;;;0.17;0.17;;;;;;;6.95;100.00;100282.28;6120723;23;20022;-90
2023/04/08 12:27:13;;;;;;;2.53;0.65;;;;;;;6.86;100.00;100257.16;6147325;23;20386;-91
2023/04/08 12:29:39;;;;;;;0.52;0.52;;;;;;;6.91;100.00;100267.75;6073092;23;20017;-91
2023/04/08 12:32:07;;;;;;;0.10;0.10;;;;;;;6.74;100.00;100269.44;6121560;23;20422;-91
2023/04/08 12:34:33;;;;;;;0.80;0.63;;;;;;;6.74;100.00;100280.47;6072495;23;20389;-91